Time;durP1;ratioP1;P1;durP2;ratioP2;P2;SDS_P1;SDS_P2;PMS_P1;PMS_P2;Temp;Humidity;BMP_temperature;BMP_pressure;BME280_temperature;BME280_humidity;BME280_pressure;Samples;Min_cycle;Max_cycle;Signal;HPM_P1;HPM_P2
2022/12/20 00:00:51;;;;;;;4.00;3.70;;;12.60;99.90;;;;;;5034855;28;20473;-66
2022/12/20 00:03:18;;;;;;;4.20;3.90;;;12.70;99.90;;;;;;5034164;28;20197;-66
2022/12/20 00:05:44;;;;;;;5.33;4.40;;;12.70;99.90;;;;;;5033262;28;20997;-65
2022/12/20 00:08:10;;;;;;;4.30;3.90;;;12.60;99.90;;;;;;5034118;28;20560;-66
2022/12/20 00:10:37;;;;;;;3.97;3.73;;;12.60;99.90;;;;;;5034027;28;20272;-66
2022/12/20 00:13:04;;;;;;;4.20;3.90;;;12.70;99.90;;;;;;5035210;28;20694;-66
2022/12/20 00:15:30;;;;;;;4.47;4.17;;;12.80;99.90;;;;;;5033977;28;20905;-66
2022/12/20 00:17:56;;;;;;;4.50;3.93;;;12.80;99.90;;;;;;5033665;28;20434;-66
2022/12/20 00:20:22;;;;;;;4.70;4.30;;;12.90;99.90;;;;;;5034547;28;20245;-66
2022/12/20 00:22:48;;;;;;;5.27;4.13;;;12.80;99.90;;;;;;5032029;28;20468;-66
2022/12/20 00:25:13;;;;;;;4.60;4.27;;;12.90;99.90;;;;;;5032370;28;20658;-68
2022/12/20 00:27:39;;;;;;;4.40;4.10;;;12.90;99.90;;;;;;5034419;28;20186;-67
2022/12/20 00:30:06;;;;;;;5.27;4.77;;;12.90;99.90;;;;;;5035142;28;20170;-65
2022/12/20 00:32:31;;;;;;;4.40;4.10;;;12.80;99.90;;;;;;5033156;28;20184;-66
2022/12/20 00:34:57;;;;;;;4.50;4.20;;;12.80;99.90;;;;;;5034370;28;20494;-66
2022/12/20 00:37:23;;;;;;;4.10;3.80;;;12.70;99.90;;;;;;5033317;28;20189;-66
2022/12/20 00:39:48;;;;;;;3.83;3.53;;;12.70;99.90;;;;;;5034125;28;20215;-66
2022/12/20 00:42:14;;;;;;;4.23;3.93;;;12.80;99.90;;;;;;5031874;28;20635;-69
2022/12/20 00:44:40;;;;;;;4.00;3.70;;;12.70;99.90;;;;;;5031725;28;20290;-67
2022/12/20 00:47:06;;;;;;;4.30;4.00;;;12.80;99.90;;;;;;5034866;28;20425;-66
2022/12/20 00:49:32;;;;;;;4.10;3.80;;;12.90;99.90;;;;;;5032665;28;20482;-66
2022/12/20 00:51:58;;;;;;;4.13;3.83;;;12.80;99.90;;;;;;5034788;28;20838;-66
2022/12/20 00:54:23;;;;;;;4.57;4.17;;;12.90;99.90;;;;;;5033052;28;20451;-68
2022/12/20 00:56:49;;;;;;;4.60;4.30;;;12.80;99.90;;;;;;5033402;28;20183;-66
2022/12/20 00:59:15;;;;;;;4.17;3.77;;;12.70;99.90;;;;;;5034188;28;20184;-69
2022/12/20 01:01:41;;;;;;;4.20;3.93;;;12.70;99.90;;;;;;5033709;28;20424;-66
2022/12/20 01:04:07;;;;;;;4.20;3.90;;;12.80;99.90;;;;;;5032696;28;20435;-66
2022/12/20 01:06:33;;;;;;;4.40;4.10;;;12.80;99.90;;;;;;5032745;28;20214;-66
2022/12/20 01:08:59;;;;;;;3.63;3.43;;;12.80;99.90;;;;;;5034456;28;20175;-66
2022/12/20 01:11:27;;;;;;;4.10;3.80;;;12.80;99.90;;;;;;5031048;28;20443;-66
2022/12/20 01:13:55;;;;;;;4.20;3.80;;;12.80;99.90;;;;;;5032385;28;20440;-66
2022/12/20 01:16:27;;;;;;;4.07;3.83;;;12.80;99.90;;;;;;5032849;28;20438;-66
2022/12/20 01:18:54;;;;;;;4.03;3.70;;;12.80;99.90;;;;;;5034447;28;20409;-66
2022/12/20 01:21:21;;;;;;;4.20;3.90;;;12.80;99.90;;;;;;5032108;28;20568;-66
2022/12/20 01:23:47;;;;;;;3.67;3.47;;;12.80;99.90;;;;;;5033497;28;20942;-66
2022/12/20 01:26:16;;;;;;;3.90;3.60;;;12.90;99.90;;;;;;5033452;28;21075;-66
2022/12/20 01:28:44;;;;;;;4.43;4.03;;;13.00;99.90;;;;;;5033189;28;20477;-66
2022/12/20 01:31:15;;;;;;;3.90;3.60;;;13.00;99.90;;;;;;5033276;28;20496;-66
2022/12/20 01:33:42;;;;;;;3.67;3.37;;;12.80;99.90;;;;;;5032763;28;20449;-66
2022/12/20 01:36:14;;;;;;;3.97;3.67;;;12.90;99.90;;;;;;5033066;28;20434;-66
2022/12/20 01:38:40;;;;;;;4.47;4.17;;;12.90;99.90;;;;;;5031427;28;20429;-66
2022/12/20 01:41:06;;;;;;;4.00;3.70;;;12.80;99.90;;;;;;5031755;28;20475;-66
2022/12/20 01:43:58;;;;;;;4.00;3.70;;;12.80;99.90;;;;;;5033182;28;20615;-66
2022/12/20 01:46:26;;;;;;;4.30;3.80;;;12.80;99.90;;;;;;5032327;28;20442;-66
2022/12/20 01:49:12;;;;;;;4.40;4.10;;;12.80;99.90;;;;;;5031972;28;20429;-66
2022/12/20 01:51:45;;;;;;;4.03;3.73;;;12.80;99.90;;;;;;5032728;28;21089;-66
2022/12/20 01:54:34;;;;;;;4.47;4.17;;;12.80;99.90;;;;;;5033541;28;20412;-66
2022/12/20 01:57:05;;;;;;;3.93;3.63;;;12.70;99.90;;;;;;5032803;28;20778;-66
2022/12/20 01:59:35;;;;;;;4.77;4.47;;;12.60;99.90;;;;;;5032077;28;20519;-66
2022/12/20 02:02:06;;;;;;;4.53;4.23;;;12.60;99.90;;;;;;5032664;28;20414;-66
2022/12/20 02:04:32;;;;;;;4.33;4.03;;;12.60;99.90;;;;;;5032918;28;20395;-65
2022/12/20 02:06:59;;;;;;;4.90;4.50;;;12.50;99.90;;;;;;5030449;28;20431;-69
2022/12/20 02:09:25;;;;;;;5.03;4.63;;;12.50;99.90;;;;;;5031674;28;20432;-67
2022/12/20 02:12:13;;;;;;;4.20;3.97;;;12.60;99.90;;;;;;5020350;28;20453;-66
2022/12/20 02:14:50;;;;;;;5.20;4.70;;;12.50;99.90;;;;;;5031910;28;20671;-66
2022/12/20 02:17:46;;;;;;;4.50;4.20;;;12.50;99.90;;;;;;5031620;28;20467;-66
2022/12/20 02:20:25;;;;;;;4.40;4.10;;;12.60;99.90;;;;;;5033053;28;20474;-66
2022/12/20 02:23:28;;;;;;;4.70;4.37;;;12.70;99.90;;;;;;5031526;28;20468;-66
2022/12/20 02:26:36;;;;;;;4.37;4.07;;;12.70;99.90;;;;;;5030227;28;20448;-66
2022/12/20 02:29:23;;;;;;;4.63;4.33;;;12.70;99.90;;;;;;5032255;28;20452;-66
2022/12/20 02:32:03;;;;;;;4.67;4.30;;;12.60;99.90;;;;;;5032146;28;20906;-66
2022/12/20 02:34:32;;;;;;;4.90;4.60;;;12.60;99.90;;;;;;5031543;28;20900;-66
2022/12/20 02:36:57;;;;;;;5.00;4.50;;;12.60;99.90;;;;;;5031672;28;20523;-66
2022/12/20 02:39:27;;;;;;;5.40;4.90;;;12.60;99.90;;;;;;5019594;28;20517;-66
2022/12/20 02:42:19;;;;;;;5.00;4.60;;;12.40;99.90;;;;;;5032106;28;20167;-66
2022/12/20 02:47:54;;;;;;;4.90;4.50;;;12.50;99.90;;;;;;5030821;28;20563;-66
2022/12/20 02:50:24;;;;;;;4.90;4.60;;;12.50;99.90;;;;;;5031296;28;20441;-66
2022/12/20 02:52:50;;;;;;;5.73;4.80;;;12.60;99.90;;;;;;5031529;28;20943;-68
2022/12/20 02:55:17;;;;;;;5.33;4.87;;;12.30;99.90;;;;;;5031703;28;20432;-66
2022/12/20 02:57:54;;;;;;;5.23;4.83;;;12.40;99.90;;;;;;5031184;28;20440;-65
2022/12/20 03:00:21;;;;;;;4.50;4.20;;;12.40;99.90;;;;;;5031401;28;20452;-66
2022/12/20 03:05:35;;;;;;;4.57;4.27;;;12.60;99.90;;;;;;5031155;28;20788;-66
2022/12/20 03:08:01;;;;;;;4.90;4.60;;;12.70;99.90;;;;;;5030848;28;20460;-66
2022/12/20 03:10:27;;;;;;;4.50;4.10;;;12.80;99.90;;;;;;5031829;28;20458;-66
2022/12/20 03:12:52;;;;;;;4.60;4.30;;;12.80;99.90;;;;;;5031382;28;20454;-66
2022/12/20 03:15:18;;;;;;;5.13;4.73;;;12.70;99.90;;;;;;5031825;28;20440;-65
2022/12/20 03:17:44;;;;;;;4.97;4.50;;;12.60;99.90;;;;;;5029988;28;20197;-65
2022/12/20 03:20:10;;;;;;;4.60;4.33;;;12.50;99.90;;;;;;5031792;28;20639;-66
2022/12/20 03:22:36;;;;;;;4.77;4.40;;;12.40;99.90;;;;;;5029977;28;20266;-66
2022/12/20 03:25:02;;;;;;;5.53;5.07;;;12.50;99.90;;;;;;5032341;28;20421;-66
2022/12/20 03:27:28;;;;;;;4.77;4.37;;;12.40;99.90;;;;;;5031188;28;20452;-66
2022/12/20 03:29:54;;;;;;;5.33;4.30;;;12.30;99.90;;;;;;5030261;28;20441;-65
2022/12/20 03:32:21;;;;;;;4.83;4.43;;;12.40;99.90;;;;;;5032309;28;20181;-66
2022/12/20 03:34:46;;;;;;;5.77;5.30;;;12.40;99.90;;;;;;5030839;28;20440;-66
2022/12/20 03:37:12;;;;;;;5.57;5.07;;;12.30;99.90;;;;;;5031563;28;20923;-66
2022/12/20 03:39:38;;;;;;;5.30;4.90;;;12.40;99.90;;;;;;5031565;28;20202;-66
2022/12/20 03:42:04;;;;;;;4.87;4.47;;;12.30;99.90;;;;;;5031658;28;20189;-66
2022/12/20 03:44:29;;;;;;;6.90;4.73;;;12.30;99.90;;;;;;5030765;28;20273;-66
2022/12/20 03:46:55;;;;;;;7.10;6.50;;;12.20;99.90;;;;;;5032131;28;20549;-66
2022/12/20 03:49:21;;;;;;;5.80;5.30;;;12.20;99.90;;;;;;5030544;28;20189;-66
2022/12/20 03:51:46;;;;;;;5.13;4.73;;;12.20;99.90;;;;;;5030291;28;20595;-66
2022/12/20 03:54:12;;;;;;;5.43;4.93;;;12.10;99.90;;;;;;5031337;28;20186;-66
2022/12/20 03:56:38;;;;;;;5.37;4.90;;;12.10;99.90;;;;;;5030835;28;20647;-66
2022/12/20 03:59:04;;;;;;;5.33;4.90;;;12.20;99.90;;;;;;5031239;28;20493;-66
2022/12/20 04:01:29;;;;;;;5.00;4.47;;;12.30;99.90;;;;;;5030497;28;20673;-66
2022/12/20 04:03:55;;;;;;;5.40;4.83;;;12.20;99.90;;;;;;5031947;28;20229;-66
2022/12/20 04:06:22;;;;;;;4.90;4.50;;;12.20;99.90;;;;;;5030877;28;20634;-65
2022/12/20 04:08:48;;;;;;;7.17;4.43;;;12.30;99.90;;;;;;5030354;28;20429;-65
2022/12/20 04:11:17;;;;;;;5.33;4.90;;;12.30;99.90;;;;;;5032027;28;20437;-65
2022/12/20 04:13:46;;;;;;;5.63;5.13;;;12.30;99.90;;;;;;5034618;28;20424;-65
2022/12/20 04:16:14;;;;;;;5.00;4.70;;;12.20;99.90;;;;;;5034577;28;20421;-65
2022/12/20 04:18:39;;;;;;;5.00;4.60;;;12.20;99.90;;;;;;5033380;28;20436;-66
2022/12/20 04:21:08;;;;;;;5.60;5.10;;;12.30;99.90;;;;;;5035127;28;20484;-65
2022/12/20 04:23:36;;;;;;;5.17;4.87;;;12.30;99.90;;;;;;5033343;28;20250;-66
2022/12/20 04:26:03;;;;;;;5.17;4.70;;;12.30;99.90;;;;;;5034104;28;20532;-65
2022/12/20 04:28:29;;;;;;;5.50;5.00;;;12.40;99.90;;;;;;5034690;28;20487;-69
2022/12/20 04:30:55;;;;;;;6.27;5.77;;;12.40;99.90;;;;;;5031933;28;20992;-66
2022/12/20 04:33:21;;;;;;;5.80;5.33;;;12.40;99.90;;;;;;5033830;28;20924;-65
2022/12/20 04:35:47;;;;;;;6.00;5.00;;;12.40;99.90;;;;;;5033140;28;20438;-65
2022/12/20 04:38:13;;;;;;;5.40;5.00;;;12.60;99.90;;;;;;5033879;28;20445;-65
2022/12/20 04:40:39;;;;;;;5.73;5.23;;;12.60;99.90;;;;;;5032967;28;20264;-65
2022/12/20 04:43:05;;;;;;;5.40;5.10;;;12.50;99.90;;;;;;5033849;28;20468;-66
2022/12/20 04:45:31;;;;;;;5.77;5.27;;;12.50;99.90;;;;;;5032181;28;20436;-69
2022/12/20 04:47:56;;;;;;;5.93;5.43;;;12.40;99.90;;;;;;5033564;28;20183;-65
2022/12/20 04:50:22;;;;;;;5.37;4.97;;;12.40;99.90;;;;;;5030823;28;20188;-66
2022/12/20 04:55:37;;;;;;;6.50;5.90;;;12.30;99.90;;;;;;5032367;28;20679;-69
2022/12/20 04:58:02;;;;;;;6.03;5.53;;;12.50;99.90;;;;;;5032787;28;20527;-65
2022/12/20 05:00:28;;;;;;;7.03;5.30;;;12.50;99.90;;;;;;5033309;28;20599;-65
2022/12/20 05:02:53;;;;;;;6.13;5.50;;;12.40;99.90;;;;;;5032354;28;20281;-65
2022/12/20 05:05:19;;;;;;;5.97;5.57;;;12.30;99.90;;;;;;5034169;28;20171;-65
2022/12/20 05:07:45;;;;;;;6.43;5.80;;;12.30;99.90;;;;;;5030237;28;20770;-66
2022/12/20 05:10:11;;;;;;;5.40;5.00;;;12.30;99.90;;;;;;5033435;28;20215;-65
2022/12/20 05:12:37;;;;;;;6.10;5.03;;;12.30;99.90;;;;;;5032880;28;20530;-65
2022/12/20 05:15:03;;;;;;;6.00;5.27;;;12.30;99.90;;;;;;5033104;28;20434;-65
2022/12/20 05:17:29;;;;;;;5.90;5.47;;;12.30;99.90;;;;;;5032758;28;20187;-65
2022/12/20 05:19:54;;;;;;;6.53;6.03;;;12.30;99.90;;;;;;5032894;28;20976;-65
2022/12/20 05:27:49;;;;;;;7.60;6.90;;;12.30;99.90;;;;;;5031193;28;20596;-66
2022/12/20 05:30:15;;;;;;;6.70;6.00;;;12.40;99.90;;;;;;5032152;28;20515;-66
2022/12/20 05:32:41;;;;;;;6.30;5.70;;;12.30;99.90;;;;;;5030763;28;20224;-66
2022/12/20 05:35:07;;;;;;;5.80;5.40;;;12.40;99.90;;;;;;5032959;28;20461;-65
2022/12/20 05:37:33;;;;;;;6.60;6.10;;;12.30;99.90;;;;;;5033070;28;20180;-69
2022/12/20 05:39:59;;;;;;;6.30;5.40;;;12.40;99.90;;;;;;5031055;28;20478;-65
2022/12/20 05:42:24;;;;;;;5.90;5.50;;;12.40;99.90;;;;;;5032813;28;20188;-66
2022/12/20 05:44:50;;;;;;;5.93;5.47;;;12.50;99.90;;;;;;5031477;28;20204;-66
2022/12/20 05:47:16;;;;;;;5.33;4.87;;;12.50;99.90;;;;;;5030153;28;20600;-66
2022/12/20 05:49:41;;;;;;;5.67;5.27;;;12.40;99.90;;;;;;5028120;28;20190;-66
2022/12/20 05:52:07;;;;;;;6.43;5.20;;;12.40;99.90;;;;;;5031858;28;20243;-65
2022/12/20 05:54:33;;;;;;;4.70;4.40;;;12.40;99.90;;;;;;5033071;28;20619;-69
2022/12/20 05:56:58;;;;;;;5.57;5.07;;;12.20;99.90;;;;;;5030614;28;20337;-65
2022/12/20 05:59:24;;;;;;;6.83;6.13;;;12.30;99.90;;;;;;5032304;28;20237;-65
2022/12/20 06:01:50;;;;;;;5.63;5.03;;;12.20;99.90;;;;;;5031292;28;20190;-65
2022/12/20 06:04:15;;;;;;;5.87;5.27;;;12.40;99.90;;;;;;5032272;28;20197;-65
2022/12/20 06:06:41;;;;;;;4.60;4.20;;;12.40;99.90;;;;;;5030566;28;20531;-66
2022/12/20 06:09:07;;;;;;;5.73;5.13;;;12.50;99.90;;;;;;5031623;28;20209;-65
2022/12/20 06:11:32;;;;;;;5.67;5.17;;;12.50;99.90;;;;;;5032145;28;20193;-65
2022/12/20 06:13:58;;;;;;;4.87;4.47;;;12.50;99.90;;;;;;5027384;28;20194;-65
2022/12/20 06:16:24;;;;;;;9.33;7.50;;;12.50;99.90;;;;;;5032669;28;20253;-66
2022/12/20 06:18:50;;;;;;;6.20;5.60;;;12.60;99.90;;;;;;5031197;28;20261;-65
2022/12/20 06:21:16;;;;;;;5.60;5.10;;;12.60;99.90;;;;;;5030228;28;20498;-66
2022/12/20 06:23:43;;;;;;;5.50;5.00;;;12.60;99.90;;;;;;5031925;28;20527;-66
2022/12/20 06:26:09;;;;;;;5.37;4.87;;;12.60;99.90;;;;;;5029608;28;20437;-66
2022/12/20 06:28:41;;;;;;;5.63;5.10;;;12.70;99.90;;;;;;5030873;28;20957;-68
2022/12/20 06:31:09;;;;;;;5.80;5.40;;;12.70;99.90;;;;;;5030097;28;20553;-66
2022/12/20 06:33:35;;;;;;;5.83;5.33;;;12.70;99.90;;;;;;5031739;28;20418;-65
2022/12/20 06:36:01;;;;;;;6.07;5.53;;;12.70;99.90;;;;;;5029172;28;20449;-65
2022/12/20 06:38:27;;;;;;;6.63;5.97;;;12.70;99.90;;;;;;5030740;28;20433;-65
2022/12/20 06:40:53;;;;;;;5.10;4.70;;;12.60;99.90;;;;;;5031394;28;20483;-68
2022/12/20 06:43:18;;;;;;;5.93;5.43;;;12.50;99.90;;;;;;5031400;28;20640;-69
2022/12/20 06:45:44;;;;;;;5.73;5.33;;;12.60;99.90;;;;;;5024623;28;20594;-67
2022/12/20 06:48:11;;;;;;;5.60;5.07;;;12.50;99.90;;;;;;5029208;28;20439;-66
2022/12/20 06:50:39;;;;;;;6.00;5.40;;;12.50;99.90;;;;;;5032061;28;20448;-69
2022/12/20 06:53:05;;;;;;;5.87;5.13;;;;;;;;;;5030173;28;20441;-65
2022/12/20 06:55:32;;;;;;;5.30;4.90;;;12.50;99.90;;;;;;5028961;28;21154;-68
2022/12/20 06:57:58;;;;;;;5.30;4.80;;;12.50;99.90;;;;;;5029974;28;20412;-67
2022/12/20 07:00:23;;;;;;;4.90;4.60;;;12.40;99.90;;;;;;5029368;28;20471;-67
2022/12/20 07:02:49;;;;;;;4.67;4.27;;;12.30;99.90;;;;;;5028716;28;20209;-66
2022/12/20 07:05:15;;;;;;;5.63;4.70;;;12.40;99.90;;;;;;5031527;28;20498;-68
2022/12/20 07:07:40;;;;;;;4.90;4.50;;;12.30;99.90;;;;;;5030675;28;20187;-70
2022/12/20 07:10:07;;;;;;;5.27;4.87;;;12.30;99.90;;;;;;5030641;28;20193;-70
2022/12/20 07:12:33;;;;;;;6.03;5.50;;;12.40;99.90;;;;;;5027748;28;20561;-69
2022/12/20 07:14:59;;;;;;;6.27;5.70;;;12.60;99.90;;;;;;5029985;28;20433;-68
2022/12/20 07:17:24;;;;;;;6.03;5.53;;;12.70;99.90;;;;;;5026140;28;20190;-69
2022/12/20 07:19:50;;;;;;;6.00;5.50;;;12.70;99.90;;;;;;5029499;28;20477;-67
2022/12/20 07:22:16;;;;;;;4.53;4.23;;;12.60;99.90;;;;;;5032271;28;20176;-68
2022/12/20 07:24:42;;;;;;;5.30;5.00;;;12.50;99.90;;;;;;5029738;28;20210;-68
2022/12/20 07:27:10;;;;;;;6.20;5.40;;;12.70;99.90;;;;;;5037299;28;20448;-68
2022/12/20 07:29:35;;;;;;;6.90;6.40;;;12.90;99.90;;;;;;5032323;28;20170;-68
2022/12/20 07:32:02;;;;;;;6.23;5.83;;;13.20;99.90;;;;;;5030543;28;20465;-68
2022/12/20 07:34:27;;;;;;;6.13;5.67;;;13.40;99.90;;;;;;5032015;28;20264;-68
2022/12/20 07:36:53;;;;;;;6.23;5.73;;;13.50;99.90;;;;;;5030858;28;20541;-68
2022/12/20 07:39:19;;;;;;;5.47;5.10;;;13.60;99.90;;;;;;5031383;28;20197;-68
2022/12/20 07:41:45;;;;;;;4.63;4.43;;;13.60;99.90;;;;;;5030468;28;20246;-68
2022/12/20 07:44:11;;;;;;;5.50;5.10;;;13.60;99.90;;;;;;5032115;28;20341;-68
2022/12/20 07:46:36;;;;;;;5.57;5.17;;;13.80;99.90;;;;;;5031449;28;20520;-67
2022/12/20 07:49:02;;;;;;;4.60;4.20;;;13.90;99.90;;;;;;5033192;28;20193;-66
2022/12/20 07:51:35;;;;;;;5.70;5.20;;;14.00;99.90;;;;;;5038074;28;20272;-68
2022/12/20 07:54:08;;;;;;;5.43;4.93;;;13.70;99.90;;;;;;5033053;28;20433;-68
2022/12/20 07:56:38;;;;;;;5.50;5.00;;;13.40;99.90;;;;;;5034168;28;20496;-66
2022/12/20 07:59:05;;;;;;;4.93;4.63;;;13.20;99.90;;;;;;5033139;28;20770;-66
2022/12/20 08:01:31;;;;;;;5.23;4.83;;;13.10;99.90;;;;;;5032596;28;20462;-67
2022/12/20 08:04:06;;;;;;;5.40;4.90;;;13.10;99.90;;;;;;5034155;28;20471;-66
2022/12/20 08:06:32;;;;;;;5.23;4.53;;;13.20;99.90;;;;;;5033487;28;20797;-65
2022/12/20 08:09:03;;;;;;;4.80;4.43;;;13.10;99.90;;;;;;5034499;28;20438;-66
2022/12/20 08:11:30;;;;;;;4.40;4.10;;;13.10;99.90;;;;;;5035301;28;20907;-66
2022/12/20 08:13:56;;;;;;;4.67;4.27;;;13.10;99.90;;;;;;5032258;28;20439;-66
2022/12/20 08:16:22;;;;;;;7.27;6.50;;;13.10;99.90;;;;;;5034507;28;20437;-66
2022/12/20 08:18:47;;;;;;;6.93;6.23;;;13.00;99.90;;;;;;5034195;28;20519;-66
2022/12/20 08:21:13;;;;;;;4.70;4.30;;;13.10;99.90;;;;;;5034509;28;20217;-69
2022/12/20 08:23:39;;;;;;;4.40;4.10;;;13.00;99.90;;;;;;5032639;28;20343;-66
2022/12/20 08:26:05;;;;;;;4.73;4.33;;;13.00;99.90;;;;;;5033839;28;20257;-65
2022/12/20 08:28:31;;;;;;;3.87;3.60;;;13.00;99.90;;;;;;5035256;28;20417;-65
2022/12/20 08:31:08;;;;;;;5.20;4.80;;;13.10;99.90;;;;;;5041993;28;20440;-66
2022/12/20 08:33:35;;;;;;;4.70;4.20;;;12.90;99.90;;;;;;5043752;28;20601;-66
2022/12/20 08:36:04;;;;;;;4.67;4.27;;;12.90;99.90;;;;;;5027788;28;20526;-66
2022/12/20 08:38:31;;;;;;;5.53;5.00;;;12.90;99.90;;;;;;5043155;28;20440;-65
2022/12/20 08:41:09;;;;;;;7.67;5.93;;;12.90;99.90;;;;;;5033463;28;20507;-67
2022/12/20 08:43:36;;;;;;;4.33;4.00;;;12.80;99.90;;;;;;5034175;28;20425;-65
2022/12/20 08:46:02;;;;;;;4.50;4.10;;;12.80;99.90;;;;;;5033222;28;20432;-65
2022/12/20 08:48:28;;;;;;;4.30;3.97;;;12.90;99.90;;;;;;5036338;28;20857;-66
2022/12/20 08:50:59;;;;;;;4.33;4.00;;;12.90;99.90;;;;;;5032133;28;20442;-66
2022/12/20 08:53:25;;;;;;;4.80;4.40;;;13.00;99.90;;;;;;5043945;28;20434;-66
2022/12/20 08:55:52;;;;;;;3.60;3.40;;;13.00;99.90;;;;;;5033067;28;20935;-66
2022/12/20 08:58:18;;;;;;;4.30;4.00;;;13.10;99.90;;;;;;5034084;28;20817;-65
2022/12/20 09:00:44;;;;;;;4.40;3.90;;;13.00;99.90;;;;;;5033135;28;20970;-69
2022/12/20 09:03:12;;;;;;;4.77;4.37;;;13.10;99.90;;;;;;5033586;28;20463;-66
2022/12/20 09:05:47;;;;;;;4.57;4.17;;;13.20;99.90;;;;;;5031211;28;20428;-66
2022/12/20 09:08:15;;;;;;;4.10;3.80;;;13.20;99.90;;;;;;5032285;28;20524;-66
2022/12/20 09:10:42;;;;;;;4.53;4.23;;;13.20;99.90;;;;;;5025207;28;20472;-65
2022/12/20 09:13:09;;;;;;;4.23;3.83;;;13.20;99.90;;;;;;5031529;28;21001;-66
2022/12/20 09:15:35;;;;;;;4.83;4.30;;;13.10;99.90;;;;;;5032543;28;20778;-65
2022/12/20 09:18:01;;;;;;;4.40;4.10;;;13.10;99.90;;;;;;5030664;28;20431;-65
2022/12/20 09:20:28;;;;;;;4.43;4.03;;;13.10;99.90;;;;;;5033040;28;20481;-65
2022/12/20 09:22:53;;;;;;;8.43;4.13;;;13.20;99.90;;;;;;5033138;28;20463;-65
2022/12/20 09:25:19;;;;;;;4.30;4.00;;;13.20;99.90;;;;;;5033541;28;20443;-65
2022/12/20 09:27:45;;;;;;;4.40;4.10;;;13.20;99.90;;;;;;5032907;28;20180;-70
2022/12/20 09:30:11;;;;;;;5.50;5.10;;;13.20;99.90;;;;;;5033112;28;20183;-68
2022/12/20 09:32:37;;;;;;;4.63;4.23;;;13.10;99.90;;;;;;5033288;28;20234;-65
2022/12/20 09:35:03;;;;;;;4.50;4.20;;;13.00;99.90;;;;;;5031546;28;20862;-66
2022/12/20 09:37:31;;;;;;;5.10;4.73;;;13.00;99.90;;;;;;5033634;28;20180;-65
2022/12/20 09:39:57;;;;;;;5.03;4.63;;;13.00;99.90;;;;;;5032455;28;20465;-65
2022/12/20 09:42:26;;;;;;;4.93;4.63;;;13.10;99.90;;;;;;5033901;28;20435;-65
2022/12/20 09:45:04;;;;;;;4.77;4.37;;;13.10;99.90;;;;;;5032464;28;20465;-66
2022/12/20 09:47:32;;;;;;;4.70;4.30;;;13.10;99.90;;;;;;5033162;28;20770;-65
2022/12/20 09:49:58;;;;;;;4.57;4.17;;;13.00;99.90;;;;;;5031680;28;20825;-65
2022/12/20 09:52:51;;;;;;;4.60;4.30;;;13.00;99.90;;;;;;5015916;28;20439;-65
2022/12/20 09:55:37;;;;;;;5.83;4.40;;;12.90;99.90;;;;;;5032905;28;20190;-65
2022/12/20 09:58:27;;;;;;;4.50;4.20;;;12.90;99.90;;;;;;5032253;28;20444;-65
2022/12/20 10:00:52;;;;;;;4.10;3.80;;;12.90;99.90;;;;;;5032182;28;20469;-65
2022/12/20 10:03:27;;;;;;;4.67;4.37;;;13.00;99.90;;;;;;5032842;28;20895;-66
2022/12/20 10:05:57;;;;;;;4.93;4.47;;;13.00;99.90;;;;;;5013205;28;20210;-65
2022/12/20 10:08:35;;;;;;;4.33;4.00;;;12.90;99.90;;;;;;5025458;28;20431;-65
2022/12/20 10:11:16;;;;;;;3.80;3.60;;;12.80;99.90;;;;;;5032001;28;20421;-65
2022/12/20 10:13:56;;;;;;;4.83;4.53;;;13.00;99.90;;;;;;5032460;28;20437;-65
2022/12/20 10:16:45;;;;;;;4.53;4.20;;;12.90;99.90;;;;;;5032669;28;20448;-65
2022/12/20 10:19:52;;;;;;;4.47;4.17;;;12.90;99.90;;;;;;5031919;28;20434;-66
2022/12/20 10:22:44;;;;;;;4.50;4.20;;;13.00;99.90;;;;;;5016116;28;20460;-65
2022/12/20 10:25:19;;;;;;;4.50;4.20;;;13.10;99.90;;;;;;5032006;28;20763;-65
2022/12/20 10:27:46;;;;;;;4.70;4.40;;;13.20;99.90;;;;;;5032258;28;20445;-65
2022/12/20 10:30:15;;;;;;;4.50;4.20;;;13.30;99.90;;;;;;5030776;28;20471;-65
2022/12/20 10:32:44;;;;;;;4.07;3.77;;;13.50;99.90;;;;;;5033004;28;20404;-65
2022/12/20 10:35:10;;;;;;;6.93;3.93;;;13.60;99.90;;;;;;5030195;28;20440;-65
2022/12/20 10:37:37;;;;;;;4.33;3.93;;;13.60;99.90;;;;;;5031678;28;20443;-65
2022/12/20 10:40:03;;;;;;;4.43;4.13;;;13.50;99.90;;;;;;5031413;28;20213;-65
2022/12/20 10:42:39;;;;;;;4.00;3.77;;;13.50;99.90;;;;;;5032308;28;20483;-65
2022/12/20 10:45:33;;;;;;;3.90;3.60;;;13.50;99.90;;;;;;5031930;28;20442;-66
2022/12/20 10:48:02;;;;;;;3.77;3.57;;;13.60;99.90;;;;;;5026002;28;20447;-66
2022/12/20 10:50:28;;;;;;;5.00;3.97;;;13.60;99.90;;;;;;5031637;28;20541;-65
2022/12/20 10:53:14;;;;;;;3.73;3.53;;;13.60;99.90;;;;;;5032090;28;20444;-65
2022/12/20 10:55:41;;;;;;;3.93;3.63;;;13.50;99.90;;;;;;5032662;28;20400;-65
2022/12/20 10:58:34;;;;;;;4.50;4.10;;;13.50;99.90;;;;;;5031210;28;20441;-65
2022/12/20 11:01:14;;;;;;;4.27;3.87;;;13.40;99.90;;;;;;5031144;28;20467;-65
2022/12/20 11:03:52;;;;;;;4.10;3.80;;;13.40;99.90;;;;;;5031734;28;20491;-65
2022/12/20 11:06:20;;;;;;;4.40;4.00;;;13.50;99.90;;;;;;5032329;28;20415;-65
2022/12/20 11:08:47;;;;;;;3.90;3.70;;;13.50;99.90;;;;;;5031553;28;20466;-65
2022/12/20 11:11:18;;;;;;;3.90;3.60;;;13.50;99.90;;;;;;5030510;28;20443;-65
2022/12/20 11:13:45;;;;;;;3.73;3.53;;;13.50;99.90;;;;;;5031624;28;20436;-65
2022/12/20 11:16:41;;;;;;;4.00;3.73;;;13.50;99.90;;;;;;5031633;28;20647;-65
2022/12/20 11:19:41;;;;;;;5.00;4.10;;;13.50;99.90;;;;;;5022174;28;20449;-65
2022/12/20 11:22:32;;;;;;;5.20;3.47;;;13.50;99.90;;;;;;5031385;28;20486;-65
2022/12/20 11:25:38;;;;;;;4.07;3.87;;;13.50;99.90;;;;;;5035037;28;20436;-65
2022/12/20 11:28:25;;;;;;;4.20;3.90;;;13.60;99.90;;;;;;5035827;28;20483;-65
2022/12/20 11:30:57;;;;;;;3.90;3.60;;;13.60;99.90;;;;;;5036115;28;20419;-65
2022/12/20 11:33:54;;;;;;;4.10;3.80;;;13.70;99.90;;;;;;5035508;28;20447;-65
2022/12/20 11:37:07;;;;;;;4.00;3.70;;;13.90;99.90;;;;;;5035538;28;20444;-65
2022/12/20 11:39:57;;;;;;;4.13;3.90;;;14.00;99.90;;;;;;5035394;28;20404;-66
2022/12/20 11:42:48;;;;;;;4.60;4.17;;;14.00;99.90;;;;;;5015080;28;20496;-66
2022/12/20 11:45:23;;;;;;;4.20;3.90;;;14.00;99.90;;;;;;5033164;28;20448;-65
2022/12/20 11:48:06;;;;;;;3.80;3.50;;;14.00;99.90;;;;;;5035138;28;20526;-65
2022/12/20 11:50:56;;;;;;;4.80;3.73;;;13.90;99.90;;;;;;5035190;28;20466;-65
2022/12/20 11:54:01;;;;;;;4.00;3.70;;;13.90;99.90;;;;;;5033750;28;20448;-65
2022/12/20 11:56:41;;;;;;;3.83;3.63;;;13.90;99.90;;;;;;5031387;28;20429;-66
2022/12/20 11:59:19;;;;;;;3.80;3.50;;;14.00;99.90;;;;;;5015532;28;20401;-65
2022/12/20 12:02:04;;;;;;;3.50;3.30;;;14.00;99.90;;;;;;5031046;28;20471;-66
2022/12/20 12:04:35;;;;;;;4.17;3.87;;;14.00;99.90;;;;;;5035024;28;20439;-65
2022/12/20 12:07:19;;;;;;;4.10;3.80;;;14.00;99.90;;;;;;5033974;28;20401;-65
2022/12/20 12:09:55;;;;;;;3.53;3.33;;;13.90;99.90;;;;;;5034887;28;20462;-65
2022/12/20 12:12:26;;;;;;;4.40;4.03;;;13.90;99.90;;;;;;5034193;28;20447;-65
2022/12/20 12:15:34;;;;;;;4.40;4.10;;;13.70;99.90;;;;;;5034127;28;20810;-65
2022/12/20 12:18:10;;;;;;;4.20;3.90;;;13.70;99.90;;;;;;5033828;28;20427;-66
2022/12/20 12:20:57;;;;;;;4.10;3.90;;;13.80;99.90;;;;;;5034061;28;20825;-65
2022/12/20 12:24:00;;;;;;;3.90;3.60;;;13.60;99.90;;;;;;5034521;28;20971;-65
2022/12/20 12:26:27;;;;;;;4.80;4.43;;;13.60;99.90;;;;;;5034560;28;20521;-65
2022/12/20 12:28:55;;;;;;;4.40;4.10;;;13.50;99.90;;;;;;5034978;28;20416;-65
2022/12/20 12:31:38;;;;;;;5.40;4.90;;;13.50;99.90;;;;;;5035274;28;20432;-66
2022/12/20 12:34:34;;;;;;;4.33;4.03;;;13.50;99.90;;;;;;5033821;28;20405;-65
2022/12/20 12:37:06;;;;;;;3.80;3.60;;;13.60;99.90;;;;;;5033662;28;20480;-65
2022/12/20 12:39:48;;;;;;;3.70;3.50;;;13.60;99.90;;;;;;5034980;28;20434;-66
2022/12/20 12:42:32;;;;;;;4.97;4.13;;;13.60;99.90;;;;;;5032560;28;20442;-66
2022/12/20 12:45:14;;;;;;;4.03;3.67;;;13.60;99.90;;;;;;5034062;28;20412;-69
2022/12/20 12:47:52;;;;;;;5.00;3.60;;;13.60;99.90;;;;;;5034654;28;20483;-65
2022/12/20 12:50:31;;;;;;;4.27;3.90;;;13.50;99.90;;;;;;5034168;28;20447;-65
2022/12/20 12:53:05;;;;;;;4.80;4.57;;;13.50;99.90;;;;;;5034509;28;20961;-69
2022/12/20 12:55:50;;;;;;;4.40;4.20;;;13.40;99.90;;;;;;5034110;28;20432;-66
2022/12/20 12:58:22;;;;;;;4.70;4.40;;;13.30;99.90;;;;;;5014358;28;20397;-65
2022/12/20 13:01:00;;;;;;;4.53;4.33;;;13.40;99.90;;;;;;5014409;28;20827;-65
2022/12/20 13:03:51;;;;;;;4.80;4.37;;;13.40;99.90;;;;;;5014451;28;20907;-65
2022/12/20 13:06:24;;;;;;;5.83;4.43;;;13.50;99.90;;;;;;5014041;28;20467;-65
2022/12/20 13:08:55;;;;;;;4.10;3.90;;;13.60;99.90;;;;;;5014566;28;20416;-65
2022/12/20 13:11:39;;;;;;;4.27;3.87;;;13.60;99.90;;;;;;5019794;28;20787;-65
2022/12/20 13:14:17;;;;;;;4.27;3.97;;;13.60;99.90;;;;;;5032581;28;20415;-65
2022/12/20 13:16:47;;;;;;;4.27;4.00;;;13.70;99.90;;;;;;5034498;28;20498;-65
2022/12/20 13:19:17;;;;;;;3.70;3.50;;;13.60;99.90;;;;;;5033351;28;20903;-65
2022/12/20 13:21:47;;;;;;;4.37;4.00;;;13.60;99.90;;;;;;5033846;28;20481;-65